Time,TemperatureF,DewpointF,PressureIn,WindDirection,WindDirectionDegrees,WindSpeedMPH,WindSpeedGustMPH,Humidity,HourlyPrecipIn,Conditions,Clouds,dailyrainin,SoftwareType,DateUTC
2013-02-18 02:16:00,15.1,-7.2,29.99,WSW,247,6.5,6.5,36,0.00,,,0.00,WUHU21623XXSP,2013-02-18 07:16:00,
2013-02-18 02:17:00,15.1,-7.2,29.99,WSW,247,6.5,6.5,36,0.00,,,0.00,WUHU21623XXSP,2013-02-18 07:17:00,
2013-02-18 02:22:00,15.1,-7.2,29.99,WSW,247,6.5,6.5,36,0.00,,,0.00,WUHU21623XXSP,2013-02-18 07:22:00,
2013-02-18 02:27:00,15.1,-7.2,29.99,WSW,247,6.5,6.5,36,0.00,,,0.00,WUHU21623XXSP,2013-02-18 07:27:00,
2013-02-18 02:32:00,15.1,-7.2,29.99,WSW,247,6.5,6.5,36,0.00,,,0.00,WUHU21623XXSP,2013-02-18 07:32:00,
2013-02-18 03:43:00,14.9,14.9,30.03,East,90,2.0,2.0,100,0.00,,,0.00,WUHU21623XXSP,2013-02-18 08:43:00,
2013-02-18 03:48:00,14.9,-7.4,30.03,NW,315,1.1,2.0,36,0.00,,,0.00,WUHU21623XXSP,2013-02-18 08:48:00,
2013-02-18 03:53:00,14.9,-7.4,30.02,NW,315,1.1,2.0,36,0.00,,,0.00,WUHU21623XXSP,2013-02-18 08:53:00,
2013-02-18 03:58:00,14.9,-7.4,30.02,NW,315,1.1,1.1,36,0.00,,,0.00,WUHU21623XXSP,2013-02-18 08:58:00,
2013-02-18 05:33:00,14.7,-7.5,30.08,South,180,2.5,2.5,36,0.00,,,0.00,WUHU21623XXSP,2013-02-18 10:33:00,
2013-02-18 05:38:00,14.7,-7.5,30.08,NW,315,3.8,3.8,36,0.00,,,0.00,WUHU21623XXSP,2013-02-18 10:38:00,
2013-02-18 05:43:00,14.7,-7.5,30.08,West,270,1.6,3.8,36,0.00,,,0.00,WUHU21623XXSP,2013-02-18 10:43:00,
2013-02-18 05:48:00,14.7,-7.5,30.09,NW,310,4.3,5.4,36,0.00,,,0.00,WUHU21623XXSP,2013-02-18 10:48:00,
2013-02-18 05:53:00,14.7,-7.5,30.10,NW,310,6.1,14.8,36,0.00,,,0.00,WUHU21623XXSP,2013-02-18 10:53:00,
2013-02-18 05:58:00,14.7,-7.5,30.10,South,180,1.3,14.8,36,0.00,,,0.00,WUHU21623XXSP,2013-02-18 10:58:00,
2013-02-18 06:03:00,14.7,-7.5,30.11,South,180,1.3,1.3,36,0.00,,,0.00,WUHU21623XXSP,2013-02-18 11:03:00,
2013-02-18 06:08:00,14.7,-7.5,30.11,NNE,22,2.0,2.0,36,0.00,,,0.00,WUHU21623XXSP,2013-02-18 11:08:00,
2013-02-18 06:13:00,14.7,-7.5,30.11,WSW,246,3.6,9.2,36,0.00,,,0.00,WUHU21623XXSP,2013-02-18 11:13:00,
2013-02-18 06:18:00,14.5,-7.7,30.13,SSE,164,1.9,9.2,36,0.00,,,0.00,WUHU21623XXSP,2013-02-18 11:18:00,
2013-02-18 06:23:00,14.5,-7.7,30.13,NW,315,11.2,11.2,36,0.00,,,0.00,WUHU21623XXSP,2013-02-18 11:23:00,
2013-02-18 06:28:00,14.5,-7.7,30.13,NE,45,2.2,11.2,36,0.00,,,0.00,WUHU21623XXSP,2013-02-18 11:28:00,
2013-02-18 06:33:00,14.5,-7.7,30.13,NW,315,2.0,4.5,36,0.00,,,0.00,WUHU21623XXSP,2013-02-18 11:33:00,
2013-02-18 06:38:00,14.5,-7.7,30.13,NW,318,3.4,4.5,36,0.00,,,0.00,WUHU21623XXSP,2013-02-18 11:38:00,
2013-02-18 06:43:00,14.5,-7.7,30.13,WSW,247,0.9,4.5,36,0.00,,,0.00,WUHU21623XXSP,2013-02-18 11:43:00,
2013-02-18 06:48:00,14.5,-7.7,30.13,WSW,247,0.9,2.0,36,0.00,,,0.00,WUHU21623XXSP,2013-02-18 11:48:00,
2013-02-18 06:53:00,14.5,-7.7,30.13,NNW,337,2.7,2.7,36,0.00,,,0.00,WUHU21623XXSP,2013-02-18 11:53:00,
2013-02-18 06:58:00,14.5,-7.7,30.13,WSW,247,6.9,6.9,36,0.00,,,0.00,WUHU21623XXSP,2013-02-18 11:58:00,
2013-02-18 07:03:00,14.5,-7.7,30.13,WSW,247,6.9,6.9,36,0.00,,,0.00,WUHU21623XXSP,2013-02-18 12:03:00,
2013-02-18 07:08:00,14.7,-7.5,30.13,NNE,22,3.1,6.9,36,0.00,,,0.00,WUHU21623XXSP,2013-02-18 12:08:00,
2013-02-18 07:13:00,14.7,-7.5,30.13,NNE,22,3.1,6.9,36,0.00,,,0.00,WUHU21623XXSP,2013-02-18 12:13:00,
2013-02-18 07:19:00,14.7,-7.5,30.14,SSW,202,2.5,5.6,36,0.00,,,0.00,WUHU21623XXSP,2013-02-18 12:19:00,
2013-02-18 07:24:00,14.9,-7.4,30.14,NNW,337,1.6,5.6,36,0.00,,,0.00,WUHU21623XXSP,2013-02-18 12:24:00,
2013-02-18 07:29:00,14.9,-7.4,30.15,South,180,4.9,4.9,36,0.00,,,0.00,WUHU21623XXSP,2013-02-18 12:29:00,
2013-02-18 07:34:00,15.1,-7.2,30.15,West,270,2.7,4.9,36,0.00,,,0.00,WUHU21623XXSP,2013-02-18 12:34:00,
2013-02-18 07:39:00,15.3,-7.0,30.15,NE,53,1.6,5.4,36,0.00,,,0.00,WUHU21623XXSP,2013-02-18 12:39:00,
2013-02-18 07:44:00,15.4,-6.9,30.16,ESE,112,1.3,6.7,36,0.00,,,0.00,WUHU21623XXSP,2013-02-18 12:44:00,
2013-02-18 07:49:00,15.6,-6.7,30.16,NW,315,2.9,6.7,36,0.00,,,0.00,WUHU21623XXSP,2013-02-18 12:49:00,
2013-02-18 07:54:00,15.6,-6.7,30.16,WSW,247,4.3,6.0,36,0.00,,,0.00,WUHU21623XXSP,2013-02-18 12:54:00,
2013-02-18 07:59:00,16.0,-6.4,30.17,NW,315,2.7,7.4,36,0.00,,,0.00,WUHU21623XXSP,2013-02-18 12:59:00,
2013-02-18 08:04:00,16.2,-6.2,30.17,West,277,0.4,7.4,36,0.00,,,0.00,WUHU21623XXSP,2013-02-18 13:04:00,
2013-02-18 08:09:00,16.3,-6.1,30.17,North,355,4.2,11.0,36,0.00,,,0.00,WUHU21623XXSP,2013-02-18 13:09:00,
2013-02-18 08:14:00,16.5,-5.9,30.18,WSW,247,3.8,11.0,36,0.00,,,0.00,WUHU21623XXSP,2013-02-18 13:14:00,
2013-02-18 08:19:00,16.5,-5.9,30.17,NW,322,5.0,6.9,36,0.00,,,0.00,WUHU21623XXSP,2013-02-18 13:19:00,
2013-02-18 08:24:00,16.7,-5.7,30.17,NE,45,2.5,9.6,36,0.00,,,0.00,WUHU21623XXSP,2013-02-18 13:24:00,
2013-02-18 08:29:00,17.1,-5.4,30.17,SSW,202,4.5,9.6,36,0.00,,,0.00,WUHU21623XXSP,2013-02-18 13:29:00,
2013-02-18 08:34:00,17.1,-5.4,30.17,West,263,3.1,13.0,36,0.00,,,0.00,WUHU21623XXSP,2013-02-18 13:34:00,
2013-02-18 08:39:00,17.2,-5.3,30.17,West,270,6.3,13.0,36,0.00,,,0.00,WUHU21623XXSP,2013-02-18 13:39:00,
2013-02-18 08:44:00,17.2,-5.3,30.17,West,270,6.3,6.3,36,0.00,,,0.00,WUHU21623XXSP,2013-02-18 13:44:00,
2013-02-18 08:49:00,17.2,-5.3,30.17,West,270,6.3,6.3,36,0.00,,,0.00,WUHU21623XXSP,2013-02-18 13:49:00,
2013-02-18 08:54:00,17.2,-5.3,30.17,West,270,6.3,6.3,36,0.00,,,0.00,WUHU21623XXSP,2013-02-18 13:54:00,
2013-02-18 09:42:00,19.9,19.9,30.19,ESE,112,2.9,2.9,100,0.00,,,0.00,WUHU21623XXSP,2013-02-18 14:42:00,
2013-02-18 09:48:00,20.1,20.1,30.20,South,180,2.5,2.9,100,0.00,,,0.00,WUHU21623XXSP,2013-02-18 14:48:00,
2013-02-18 09:53:00,20.3,-2.5,30.19,North,0,1.1,3.4,36,0.00,,,0.00,WUHU21623XXSP,2013-02-18 14:53:00,
2013-02-18 09:58:00,20.3,-2.5,30.20,NNW,337,3.8,3.8,36,0.00,,,0.00,WUHU21623XXSP,2013-02-18 14:58:00,
2013-02-18 10:03:00,20.7,-2.2,30.20,NNW,348,1.2,4.0,36,0.00,,,0.00,WUHU21623XXSP,2013-02-18 15:03:00,
2013-02-18 10:08:00,20.8,-2.1,30.20,West,279,3.2,4.5,36,0.00,,,0.00,WUHU21623XXSP,2013-02-18 15:08:00,
2013-02-18 10:13:00,21.4,-1.5,30.19,West,270,3.4,6.5,36,0.00,,,0.00,WUHU21623XXSP,2013-02-18 15:13:00,
2013-02-18 10:18:00,21.4,-1.5,30.19,West,270,5.1,7.6,36,0.00,,,0.00,WUHU21623XXSP,2013-02-18 15:18:00,
2013-02-18 10:23:00,21.4,-1.5,30.19,NNW,337,4.0,7.6,36,0.00,,,0.00,WUHU21623XXSP,2013-02-18 15:23:00,
2013-02-18 10:28:00,21.4,-1.5,30.19,NNW,337,3.8,6.3,36,0.00,,,0.00,WUHU21623XXSP,2013-02-18 15:28:00,
2013-02-18 10:33:00,22.1,-0.9,30.20,West,270,2.5,7.2,36,0.00,,,0.00,WUHU21623XXSP,2013-02-18 15:33:00,
2013-02-18 10:38:00,22.5,-0.6,30.20,West,270,2.5,7.2,36,0.00,,,0.00,WUHU21623XXSP,2013-02-18 15:38:00,
2013-02-18 10:43:00,23.0,-0.1,30.20,WSW,244,1.5,13.6,36,0.00,,,0.00,WUHU21623XXSP,2013-02-18 15:43:00,
2013-02-18 10:48:00,23.4,0.3,30.21,WNW,292,4.7,13.6,36,0.00,,,0.00,WUHU21623XXSP,2013-02-18 15:48:00,
2013-02-18 10:53:00,23.7,0.5,30.20,West,263,2.3,10.1,36,0.00,,,0.00,WUHU21623XXSP,2013-02-18 15:53:00,
2013-02-18 10:58:00,23.9,0.7,30.20,NW,315,3.4,5.8,36,0.00,,,0.00,WUHU21623XXSP,2013-02-18 15:58:00,
2013-02-18 11:03:00,24.1,0.9,30.20,WNW,296,2.9,8.7,36,0.00,,,0.00,WUHU21623XXSP,2013-02-18 16:03:00,
2013-02-18 11:08:00,24.4,1.1,30.20,WNW,288,3.3,8.7,36,0.00,,,0.00,WUHU21623XXSP,2013-02-18 16:08:00,
2013-02-18 11:13:00,24.6,1.3,30.20,NW,315,3.1,6.3,36,0.00,,,0.00,WUHU21623XXSP,2013-02-18 16:13:00,
2013-02-18 11:18:00,24.8,1.5,30.20,West,270,3.8,5.4,36,0.00,,,0.00,WUHU21623XXSP,2013-02-18 16:18:00,
2013-02-18 11:23:00,24.8,1.5,30.20,West,270,3.8,4.5,36,0.00,,,0.00,WUHU21623XXSP,2013-02-18 16:23:00,
2013-02-18 11:28:00,25.2,1.9,30.20,NW,315,2.5,6.0,36,0.00,,,0.00,WUHU21623XXSP,2013-02-18 16:28:00,
2013-02-18 11:33:00,25.5,2.1,30.20,North,0,2.2,6.0,36,0.00,,,0.00,WUHU21623XXSP,2013-02-18 16:33:00,
2013-02-18 11:38:00,25.7,2.3,30.20,ENE,67,1.6,9.2,36,0.00,,,0.00,WUHU21623XXSP,2013-02-18 16:38:00,
2013-02-18 11:43:00,25.7,2.3,30.20,ENE,67,1.6,9.2,36,0.00,,,0.00,WUHU21623XXSP,2013-02-18 16:43:00,
2013-02-18 11:48:00,25.7,2.3,30.20,WNW,295,4.8,8.3,36,0.00,,,0.00,WUHU21623XXSP,2013-02-18 16:48:00,
2013-02-18 11:53:00,25.7,2.3,30.19,ESE,116,1.7,8.3,36,0.00,,,0.00,WUHU21623XXSP,2013-02-18 16:53:00,
2013-02-18 11:58:00,27.3,3.7,30.19,NW,315,1.3,3.6,36,0.00,,,0.00,WUHU21623XXSP,2013-02-18 16:58:00,
2013-02-18 12:03:00,27.3,3.7,30.19,NNW,337,3.1,3.1,36,0.00,,,0.00,WUHU21623XXSP,2013-02-18 17:03:00,
2013-02-18 12:08:00,27.7,4.1,30.19,SSE,157,3.6,3.6,36,0.00,,,0.00,WUHU21623XXSP,2013-02-18 17:08:00,
2013-02-18 12:13:00,28.4,4.7,30.18,NW,315,3.8,3.8,36,0.00,,,0.00,WUHU21623XXSP,2013-02-18 17:13:00,
2013-02-18 12:18:00,28.4,4.7,30.19,NNW,337,6.0,6.0,36,0.00,,,0.00,WUHU21623XXSP,2013-02-18 17:18:00,
2013-02-18 12:23:00,28.4,4.7,30.18,NNW,337,6.0,6.0,36,0.00,,,0.00,WUHU21623XXSP,2013-02-18 17:23:00,
2013-02-18 12:28:00,28.6,4.9,30.18,SW,225,1.3,6.0,36,0.00,,,0.00,WUHU21623XXSP,2013-02-18 17:28:00,
2013-02-18 12:33:00,29.1,5.3,30.18,NW,315,0.0,6.0,36,0.00,,,0.00,WUHU21623XXSP,2013-02-18 17:33:00,
2013-02-18 12:38:00,29.7,5.9,30.18,West,281,1.2,1.6,36,0.00,,,0.00,WUHU21623XXSP,2013-02-18 17:38:00,
2013-02-18 12:43:00,30.0,6.1,30.18,SW,225,5.1,5.1,36,0.00,,,0.00,WUHU21623XXSP,2013-02-18 17:43:00,
2013-02-18 12:49:00,30.0,6.1,30.18,WSW,247,1.6,5.1,36,0.00,,,0.00,WUHU21623XXSP,2013-02-18 17:49:00,
2013-02-18 12:54:00,30.2,6.3,30.18,WNW,294,0.6,7.8,36,0.00,,,0.00,WUHU21623XXSP,2013-02-18 17:54:00,
2013-02-18 12:59:00,30.6,6.7,30.18,SW,225,4.7,7.8,36,0.00,,,0.00,WUHU21623XXSP,2013-02-18 17:59:00,
2013-02-18 13:04:00,30.9,7.0,30.18,ENE,67,4.5,6.3,36,0.00,,,0.00,WUHU21623XXSP,2013-02-18 18:04:00,
2013-02-18 13:08:00,30.9,7.0,30.18,West,270,7.4,7.4,36,0.00,,,0.00,WUHU21623XXSP,2013-02-18 18:08:00,
2013-02-18 13:13:00,30.9,7.0,30.17,WSW,247,2.0,7.4,36,0.00,,,0.00,WUHU21623XXSP,2013-02-18 18:13:00,
2013-02-18 13:19:00,31.3,7.3,30.17,North,0,4.5,4.5,36,0.00,,,0.00,WUHU21623XXSP,2013-02-18 18:19:00,
2013-02-18 13:24:00,31.1,7.1,30.17,North,8,3.7,6.0,36,0.00,,,0.00,WUHU21623XXSP,2013-02-18 18:24:00,
2013-02-18 13:30:00,31.1,7.1,30.17,East,90,2.9,6.0,36,0.00,,,0.00,WUHU21623XXSP,2013-02-18 18:30:00,
2013-02-18 13:34:00,31.1,7.1,30.16,East,90,2.9,3.4,36,0.00,,,0.00,WUHU21623XXSP,2013-02-18 18:34:00,
2013-02-18 13:40:00,31.1,7.1,30.17,East,90,2.9,2.9,36,0.00,,,0.00,WUHU21623XXSP,2013-02-18 18:40:00,
2013-02-18 13:45:00,31.1,7.1,30.16,East,90,2.9,2.9,36,0.00,,,0.00,WUHU21623XXSP,2013-02-18 18:45:00,
2013-02-18 13:51:00,31.1,7.1,30.16,East,90,2.9,2.9,36,0.00,,,0.00,WUHU21623XXSP,2013-02-18 18:51:00,
2013-02-18 13:56:00,31.1,7.1,30.16,East,90,2.9,2.9,36,0.00,,,0.00,WUHU21623XXSP,2013-02-18 18:56:00,
2013-02-18 14:01:00,32.2,8.1,30.16,NNW,337,4.5,4.5,36,0.00,,,0.00,WUHU21623XXSP,2013-02-18 19:01:00,
2013-02-18 14:06:00,32.2,8.1,30.16,WSW,247,4.3,5.6,36,0.00,,,0.00,WUHU21623XXSP,2013-02-18 19:06:00,
2013-02-18 14:11:00,32.2,8.1,30.16,NW,311,1.3,6.0,36,0.00,,,0.00,WUHU21623XXSP,2013-02-18 19:11:00,
2013-02-18 14:16:00,32.5,8.4,30.16,West,270,9.2,9.2,36,0.00,,,0.00,WUHU21623XXSP,2013-02-18 19:16:00,
2013-02-18 14:21:00,32.5,8.4,30.16,WNW,297,2.5,9.2,36,0.00,,,0.00,WUHU21623XXSP,2013-02-18 19:21:00,
2013-02-18 14:26:00,32.5,8.4,30.15,West,270,4.0,7.8,36,0.00,,,0.00,WUHU21623XXSP,2013-02-18 19:26:00,
2013-02-18 14:31:00,32.9,8.7,30.16,NNW,334,2.2,7.8,36,0.00,,,0.00,WUHU21623XXSP,2013-02-18 19:31:00,
2013-02-18 14:36:00,32.9,8.7,30.16,NNE,21,2.7,7.8,36,0.00,,,0.00,WUHU21623XXSP,2013-02-18 19:36:00,
2013-02-18 14:41:00,32.9,8.7,30.15,WNW,298,2.4,8.3,36,0.00,,,0.00,WUHU21623XXSP,2013-02-18 19:41:00,
2013-02-18 14:46:00,32.9,8.7,30.15,WSW,258,2.7,8.3,36,0.00,,,0.00,WUHU21623XXSP,2013-02-18 19:46:00,
2013-02-18 14:52:00,33.1,8.9,30.15,NW,313,1.8,8.9,36,0.00,,,0.00,WUHU21623XXSP,2013-02-18 19:52:00,
2013-02-18 14:57:00,33.1,8.9,30.15,NW,315,4.7,8.9,36,0.00,,,0.00,WUHU21623XXSP,2013-02-18 19:57:00,
2013-02-18 15:02:00,33.1,8.9,30.15,West,276,3.8,9.2,36,0.00,,,0.00,WUHU21623XXSP,2013-02-18 20:02:00,
2013-02-18 15:07:00,33.3,9.1,30.16,SSW,202,2.9,9.2,36,0.00,,,0.00,WUHU21623XXSP,2013-02-18 20:07:00,
2013-02-18 15:12:00,33.4,9.2,30.15,WNW,287,1.0,5.6,36,0.00,,,0.00,WUHU21623XXSP,2013-02-18 20:12:00,
2013-02-18 15:17:00,33.6,9.4,30.16,NNW,337,2.2,7.6,36,0.00,,,0.00,WUHU21623XXSP,2013-02-18 20:17:00,
2013-02-18 15:22:00,33.6,9.4,30.16,NW,311,3.1,7.6,36,0.00,,,0.00,WUHU21623XXSP,2013-02-18 20:22:00,
2013-02-18 15:27:00,33.8,9.5,30.16,WNW,292,2.0,6.7,36,0.00,,,0.00,WUHU21623XXSP,2013-02-18 20:27:00,
2013-02-18 15:32:00,34.0,9.7,30.16,West,270,4.5,5.6,36,0.00,,,0.00,WUHU21623XXSP,2013-02-18 20:32:00,
2013-02-18 15:37:00,34.0,9.7,30.16,WNW,294,0.5,4.5,36,0.00,,,0.00,WUHU21623XXSP,2013-02-18 20:37:00,
2013-02-18 15:42:00,34.0,9.7,30.16,NNW,337,4.3,4.3,36,0.00,,,0.00,WUHU21623XXSP,2013-02-18 20:42:00,
2013-02-18 15:47:00,34.0,9.7,30.16,NNW,337,4.3,4.3,36,0.00,,,0.00,WUHU21623XXSP,2013-02-18 20:47:00,
2013-02-18 15:52:00,34.0,9.7,30.16,NNW,337,4.3,4.3,36,0.00,,,0.00,WUHU21623XXSP,2013-02-18 20:52:00,
2013-02-18 16:41:00,33.3,9.1,30.17,NW,315,0.7,0.7,36,0.00,,,0.00,WUHU21623XXSP,2013-02-18 21:41:00,
2013-02-18 16:46:00,33.1,8.9,30.17,WSW,247,2.5,5.6,36,0.00,,,0.00,WUHU21623XXSP,2013-02-18 21:46:00,
2013-02-18 16:51:00,32.9,8.7,30.16,WNW,302,2.4,5.6,36,0.00,,,0.00,WUHU21623XXSP,2013-02-18 21:51:00,
2013-02-18 16:56:00,32.7,8.6,30.17,WNW,292,2.5,5.1,36,0.00,,,0.00,WUHU21623XXSP,2013-02-18 21:56:00,
2013-02-18 17:02:00,32.7,8.6,30.17,NNW,337,1.6,4.9,36,0.00,,,0.00,WUHU21623XXSP,2013-02-18 22:02:00,
2013-02-18 17:07:00,32.4,8.3,30.17,West,271,1.7,6.3,36,0.00,,,0.00,WUHU21623XXSP,2013-02-18 22:07:00,
2013-02-18 17:12:00,32.4,8.3,30.17,WNW,283,1.4,6.3,36,0.00,,,0.00,WUHU21623XXSP,2013-02-18 22:12:00,
2013-02-18 17:17:00,32.2,8.1,30.16,West,273,0.8,5.4,36,0.00,,,0.00,WUHU21623XXSP,2013-02-18 22:17:00,
2013-02-18 17:22:00,31.8,7.8,30.17,West,270,2.2,3.8,36,0.00,,,0.00,WUHU21623XXSP,2013-02-18 22:22:00,
2013-02-18 17:27:00,31.5,7.5,30.17,West,270,0.7,3.8,36,0.00,,,0.00,WUHU21623XXSP,2013-02-18 22:27:00,
2013-02-18 17:32:00,31.3,7.3,30.18,North,5,0.5,2.9,36,0.00,,,0.00,WUHU21623XXSP,2013-02-18 22:32:00,
2013-02-18 17:37:00,31.1,7.1,30.18,West,264,0.6,3.1,36,0.00,,,0.00,WUHU21623XXSP,2013-02-18 22:37:00,
2013-02-18 17:42:00,30.9,7.0,30.18,South,180,0.0,3.1,36,0.00,,,0.00,WUHU21623XXSP,2013-02-18 22:42:00,
2013-02-18 17:47:00,30.6,6.7,30.18,WNW,292,0.1,3.6,36,0.00,,,0.00,WUHU21623XXSP,2013-02-18 22:47:00,
2013-02-18 17:52:00,30.6,6.7,30.17,NNE,22,0.0,3.6,36,0.00,,,0.00,WUHU21623XXSP,2013-02-18 22:52:00,
2013-02-18 17:57:00,30.6,6.7,30.17,NNE,22,0.0,0.0,36,0.00,,,0.00,WUHU21623XXSP,2013-02-18 22:57:00,
2013-02-18 18:03:00,30.4,6.5,30.18,WNW,292,0.0,0.0,36,0.00,,,0.00,WUHU21623XXSP,2013-02-18 23:03:00,
2013-02-18 18:08:00,30.4,6.5,30.17,WNW,292,0.0,0.0,36,0.00,,,0.00,WUHU21623XXSP,2013-02-18 23:08:00,
2013-02-18 18:13:00,29.8,6.0,30.18,NNW,337,0.0,0.0,36,0.00,,,0.00,WUHU21623XXSP,2013-02-18 23:13:00,
2013-02-18 18:18:00,29.8,6.0,30.18,NNW,337,0.0,0.0,36,0.00,,,0.00,WUHU21623XXSP,2013-02-18 23:18:00,
2013-02-18 18:23:00,29.8,6.0,30.18,WNW,292,0.0,0.0,36,0.00,,,0.00,WUHU21623XXSP,2013-02-18 23:23:00,
2013-02-18 18:28:00,29.8,6.0,30.18,WNW,292,0.0,0.0,36,0.00,,,0.00,WUHU21623XXSP,2013-02-18 23:28:00,
2013-02-18 18:33:00,29.8,6.0,30.18,WNW,292,0.0,0.0,36,0.00,,,0.00,WUHU21623XXSP,2013-02-18 23:33:00,
2013-02-18 19:21:00,27.5,27.5,30.20,West,270,0.0,0.0,100,0.00,,,0.00,WUHU21623XXSP,2013-02-19 00:21:00,
2013-02-18 19:26:00,27.5,3.9,30.19,WSW,247,0.0,0.0,36,0.00,,,0.00,WUHU21623XXSP,2013-02-19 00:26:00,
2013-02-18 19:31:00,27.5,3.9,30.19,WSW,247,0.0,0.0,36,0.00,,,0.00,WUHU21623XXSP,2013-02-19 00:31:00,
2013-02-18 19:36:00,27.1,3.6,30.20,WNW,292,0.0,0.0,36,0.00,,,0.00,WUHU21623XXSP,2013-02-19 00:36:00,
2013-02-18 19:41:00,27.1,3.6,30.19,WSW,247,0.0,0.0,36,0.00,,,0.00,WUHU21623XXSP,2013-02-19 00:41:00,
2013-02-18 19:46:00,27.1,3.6,30.19,SW,225,0.0,0.0,36,0.00,,,0.00,WUHU21623XXSP,2013-02-19 00:46:00,
2013-02-18 19:51:00,27.1,3.6,30.19,SW,225,0.0,0.0,36,0.00,,,0.00,WUHU21623XXSP,2013-02-19 00:51:00,
2013-02-18 19:56:00,27.1,3.6,30.19,SW,225,1.1,1.3,36,0.00,,,0.00,WUHU21623XXSP,2013-02-19 00:56:00,
2013-02-18 20:01:00,27.0,3.5,30.19,SW,225,2.2,2.2,36,0.00,,,0.00,WUHU21623XXSP,2013-02-19 01:01:00,
2013-02-18 20:06:00,27.0,3.5,30.19,SW,225,0.4,2.2,36,0.00,,,0.00,WUHU21623XXSP,2013-02-19 01:06:00,
2013-02-18 20:11:00,26.8,3.3,30.19,West,270,0.0,2.2,36,0.00,,,0.00,WUHU21623XXSP,2013-02-19 01:11:00,
2013-02-18 20:16:00,26.8,3.3,30.19,West,270,0.0,0.0,36,0.00,,,0.00,WUHU21623XXSP,2013-02-19 01:16:00,
2013-02-18 20:21:00,26.8,3.3,30.19,ESE,112,0.0,0.0,36,0.00,,,0.00,WUHU21623XXSP,2013-02-19 01:21:00,
2013-02-18 20:26:00,26.8,3.3,30.19,ESE,112,0.0,0.0,36,0.00,,,0.00,WUHU21623XXSP,2013-02-19 01:26:00,
2013-02-18 20:31:00,26.8,3.3,30.19,ESE,112,0.0,0.0,36,0.00,,,0.00,WUHU21623XXSP,2013-02-19 01:31:00,
2013-02-18 21:39:00,26.8,3.3,30.19,SSW,202,1.6,1.6,36,0.00,,,0.00,WUHU21623XXSP,2013-02-19 02:39:00,
2013-02-18 21:44:00,26.8,3.3,30.19,SSW,202,1.3,2.9,36,0.00,,,0.00,WUHU21623XXSP,2013-02-19 02:44:00,
2013-02-18 21:50:00,26.8,3.3,30.19,SSW,202,1.3,1.3,36,0.00,,,0.00,WUHU21623XXSP,2013-02-19 02:50:00,
2013-02-18 21:55:00,26.8,3.3,30.19,SSW,202,1.3,1.3,36,0.00,,,0.00,WUHU21623XXSP,2013-02-19 02:55:00,
2013-02-18 22:22:00,26.8,26.8,30.20,WSW,247,2.2,2.2,100,0.00,,,0.00,WUHU21623XXSP,2013-02-19 03:22:00,
2013-02-18 22:27:00,26.8,3.3,30.19,SW,225,1.3,2.2,36,0.00,,,0.00,WUHU21623XXSP,2013-02-19 03:27:00,
2013-02-18 22:33:00,26.8,3.3,30.20,WSW,247,0.0,3.4,36,0.00,,,0.00,WUHU21623XXSP,2013-02-19 03:33:00,
2013-02-18 22:38:00,26.8,3.3,30.20,WSW,247,0.0,3.4,36,0.00,,,0.00,WUHU21623XXSP,2013-02-19 03:38:00,
2013-02-18 22:43:00,26.8,3.3,30.20,WSW,247,0.0,0.0,36,0.00,,,0.00,WUHU21623XXSP,2013-02-19 03:43:00,
2013-02-18 22:48:00,27.1,3.6,30.20,SW,225,2.9,3.4,36,0.00,,,0.00,WUHU21623XXSP,2013-02-19 03:48:00,
2013-02-18 22:53:00,27.1,3.6,30.21,SSW,211,3.7,5.4,36,0.00,,,0.00,WUHU21623XXSP,2013-02-19 03:53:00,
2013-02-18 22:58:00,27.3,3.7,30.21,WSW,247,2.0,5.4,36,0.00,,,0.00,WUHU21623XXSP,2013-02-19 03:58:00,
2013-02-18 23:03:00,27.5,3.9,30.21,SW,225,2.5,4.3,36,0.00,,,0.00,WUHU21623XXSP,2013-02-19 04:03:00,
2013-02-18 23:08:00,27.5,3.9,30.21,SW,225,2.5,4.0,36,0.00,,,0.00,WUHU21623XXSP,2013-02-19 04:08:00,
2013-02-18 23:13:00,27.5,3.9,30.21,SW,227,1.9,2.5,36,0.00,,,0.00,WUHU21623XXSP,2013-02-19 04:13:00,
2013-02-18 23:18:00,27.5,3.9,30.20,SSW,199,1.8,3.6,36,0.00,,,0.00,WUHU21623XXSP,2013-02-19 04:18:00,
2013-02-18 23:24:00,27.7,4.1,30.21,SSW,211,1.6,3.8,36,0.00,,,0.00,WUHU21623XXSP,2013-02-19 04:24:00,
2013-02-18 23:29:00,27.7,4.1,30.21,SW,215,1.7,3.8,36,0.00,,,0.00,WUHU21623XXSP,2013-02-19 04:29:00,
2013-02-18 23:34:00,27.9,4.3,30.21,SW,215,0.4,4.3,36,0.00,,,0.00,WUHU21623XXSP,2013-02-19 04:34:00,
2013-02-18 23:39:00,27.7,4.1,30.21,South,190,0.4,4.3,36,0.00,,,0.00,WUHU21623XXSP,2013-02-19 04:39:00,
2013-02-18 23:46:00,27.9,4.3,30.20,SSE,157,0.0,2.0,36,0.00,,,0.00,WUHU21623XXSP,2013-02-19 04:46:00,
2013-02-18 23:52:00,27.9,4.3,30.21,SSW,202,0.0,1.6,36,0.00,,,0.00,WUHU21623XXSP,2013-02-19 04:52:00,
2013-02-18 23:57:00,27.9,4.3,30.20,SSW,202,0.0,1.6,36,0.00,,,0.00,WUHU21623XXSP,2013-02-19 04:57:00,